Terminal Aerodrome Forecast
Issued by NWS

Home | Current Version | Previous Version | Text Only | Print | Product List | Glossary On
Versions: 1 2 3 4 5 6 7 8 9 10 11 12 13 14 15 16 17 18 19 20 21
000
FTUS43 KOAX 250814 AAA
TAFBFF
TAF AMD
KBFF 250814Z 2508/2606 02005KT P6SM BKN025 OVC070
     FM251600 09006KT P6SM BKN025
     FM252000 07008KT P6SM VCSH SCT025 BKN040
     FM260500 11004KT 2SM BR SCT008 BKN015=

USA.gov is the U.S. government's official web portal to all federal, state and local government web resources and services.